createdAt,value
2018-09-18T00:01:36.867Z,9.77
2018-09-18T00:05:39.107Z,9.03
2018-09-18T00:09:41.278Z,8.30
2018-09-18T00:13:43.503Z,9.70
2018-09-18T00:17:45.674Z,9.53
2018-09-18T00:21:47.800Z,8.33
2018-09-18T00:25:50.014Z,9.23
2018-09-18T00:29:52.229Z,8.50
2018-09-18T00:33:54.383Z,9.93
2018-09-18T00:37:56.605Z,8.07
2018-09-18T00:41:58.786Z,8.77
2018-09-18T00:46:00.993Z,8.03
2018-09-18T00:50:03.204Z,9.27
2018-09-18T00:54:05.397Z,8.70
2018-09-18T00:58:07.722Z,9.07
2018-09-18T01:02:09.947Z,8.23
2018-09-18T01:06:12.201Z,8.87
2018-09-18T01:10:14.418Z,8.40
2018-09-18T01:14:16.733Z,8.87
2018-09-18T01:18:18.867Z,9.03
2018-09-18T01:22:21.013Z,8.77
2018-09-18T01:26:23.174Z,9.17
2018-09-18T01:30:25.394Z,9.50
2018-09-18T01:34:27.561Z,10.20
2018-09-18T01:38:29.824Z,10.97
2018-09-18T01:42:32.056Z,10.90
2018-09-18T01:46:34.205Z,10.43
2018-09-18T01:50:36.420Z,10.07
2018-09-18T01:54:38.581Z,10.50
2018-09-18T01:58:40.741Z,10.03
2018-09-18T02:02:42.882Z,10.87
2018-09-18T02:06:45.118Z,9.50
2018-09-18T02:10:47.308Z,9.60
2018-09-18T02:14:49.647Z,9.03
2018-09-18T02:18:51.830Z,10.23
2018-09-18T02:22:53.997Z,10.33
2018-09-18T02:26:56.138Z,11.00
2018-09-18T02:30:58.315Z,9.63
2018-09-18T02:35:00.495Z,9.13
2018-09-18T02:39:04.143Z,9.57
2018-09-18T02:43:06.322Z,10.57
2018-09-18T02:47:08.497Z,10.03
2018-09-18T02:51:11.072Z,9.63
2018-09-18T02:55:13.306Z,10.20
2018-09-18T02:59:15.536Z,9.23
2018-09-18T03:03:17.697Z,10.23
2018-09-18T03:07:19.886Z,9.57
2018-09-18T03:11:22.091Z,10.17
2018-09-18T03:15:24.247Z,10.57
2018-09-18T03:19:26.436Z,10.07
2018-09-18T03:23:28.615Z,10.10
2018-09-18T03:27:30.830Z,10.17
2018-09-18T03:31:33.028Z,9.87
2018-09-18T03:35:35.255Z,10.93
2018-09-18T03:39:37.402Z,8.70
2018-09-18T03:43:39.594Z,9.30
2018-09-18T03:47:41.785Z,10.07
2018-09-18T03:51:43.954Z,10.73
2018-09-18T03:55:46.102Z,10.23
2018-09-18T03:59:49.051Z,11.00
2018-09-18T04:03:51.222Z,9.40
2018-09-18T04:07:53.374Z,9.53
2018-09-18T04:11:55.626Z,10.77
2018-09-18T04:15:57.815Z,9.87
2018-09-18T04:20:00.080Z,11.63
2018-09-18T04:24:02.332Z,11.37
2018-09-18T04:28:04.548Z,10.67
2018-09-18T04:32:06.748Z,9.97
2018-09-18T04:36:10.359Z,10.17
2018-09-18T04:40:12.590Z,7.80
2018-09-18T04:44:14.910Z,8.27
2018-09-18T04:48:17.111Z,8.33
2018-09-18T04:52:19.285Z,8.43
2018-09-18T04:56:21.453Z,8.03
2018-09-18T05:00:23.753Z,12.13
2018-09-18T05:04:26.043Z,10.73
2018-09-18T05:08:28.238Z,8.53
2018-09-18T05:12:30.446Z,7.63
2018-09-18T05:16:32.841Z,7.07
2018-09-18T05:20:35.039Z,6.83
2018-09-18T05:24:37.221Z,7.57
2018-09-18T05:28:39.441Z,7.13
2018-09-18T05:32:41.670Z,8.27
2018-09-18T05:36:46.112Z,9.07
2018-09-18T05:40:48.567Z,8.33
2018-09-18T05:44:50.882Z,8.47
2018-09-18T05:48:53.060Z,8.20
2018-09-18T05:52:55.901Z,9.50
2018-09-18T05:56:58.159Z,7.20
2018-09-18T06:01:00.410Z,6.10
2018-09-18T06:05:02.629Z,6.50
2018-09-18T06:09:07.816Z,6.60
2018-09-18T06:13:09.975Z,6.47
2018-09-18T06:17:12.210Z,5.20
2018-09-18T06:21:14.412Z,5.73
2018-09-18T06:25:16.688Z,7.30
2018-09-18T06:29:18.964Z,7.37
2018-09-18T06:33:21.516Z,7.60
2018-09-18T06:37:23.787Z,5.50
2018-09-18T06:41:26.024Z,5.77
2018-09-18T06:45:28.260Z,7.17
2018-09-18T06:49:30.567Z,5.30
2018-09-18T06:53:32.885Z,5.10
2018-09-18T06:57:35.498Z,5.87
2018-09-18T07:01:38.038Z,5.97
2018-09-18T07:05:40.321Z,5.07
2018-09-18T07:09:42.770Z,5.30
2018-09-18T07:13:45.527Z,5.23
2018-09-18T07:17:48.718Z,6.10
2018-09-18T07:21:50.886Z,4.80
2018-09-18T07:25:53.046Z,5.43
2018-09-18T07:29:55.272Z,4.53
2018-09-18T07:33:57.607Z,5.23
2018-09-18T07:37:59.919Z,5.80
2018-09-18T07:42:02.143Z,5.10
2018-09-18T07:46:04.674Z,6.00
2018-09-18T07:50:06.930Z,5.30
2018-09-18T07:54:09.177Z,4.70
2018-09-18T07:58:11.400Z,5.90
2018-09-18T08:02:13.572Z,6.33
2018-09-18T08:06:15.779Z,5.73
2018-09-18T08:10:18.079Z,5.20
2018-09-18T08:14:20.283Z,5.40
2018-09-18T08:18:22.468Z,5.87
2018-09-18T08:22:24.690Z,6.37
2018-09-18T08:26:26.847Z,5.93
2018-09-18T08:30:29.069Z,5.83
2018-09-18T08:34:31.370Z,5.77
2018-09-18T08:38:34.561Z,5.40
2018-09-18T08:42:36.763Z,6.07
2018-09-18T08:46:39.930Z,6.93
2018-09-18T08:50:42.252Z,6.57
2018-09-18T08:54:44.499Z,6.30
2018-09-18T08:58:46.665Z,5.43
2018-09-18T09:02:48.887Z,5.60
2018-09-18T09:06:51.287Z,5.90
2018-09-18T09:10:53.669Z,6.60
2018-09-18T09:14:55.902Z,5.83
2018-09-18T09:18:58.095Z,6.27
2018-09-18T09:23:00.396Z,6.80
2018-09-18T09:27:02.586Z,6.27
2018-09-18T09:31:04.834Z,5.23
2018-09-18T09:35:07.158Z,5.23
2018-09-18T09:39:10.743Z,5.87
2018-09-18T09:43:12.948Z,6.73
2018-09-18T09:47:15.254Z,6.20
2018-09-18T09:51:17.548Z,6.63
2018-09-18T09:55:19.678Z,6.27
2018-09-18T09:59:21.899Z,5.83
2018-09-18T10:03:24.060Z,6.00
2018-09-18T10:07:26.281Z,6.20
2018-09-18T10:11:28.475Z,6.00
2018-09-18T10:15:30.720Z,6.53
2018-09-18T10:19:32.949Z,6.43
2018-09-18T10:23:35.134Z,5.77
2018-09-18T10:27:37.308Z,6.37
2018-09-18T10:31:39.515Z,6.70
2018-09-18T10:35:41.717Z,6.37
2018-09-18T10:39:43.906Z,6.50
2018-09-18T10:43:46.096Z,5.90
2018-09-18T10:47:48.239Z,5.93
2018-09-18T10:51:50.518Z,6.80
2018-09-18T10:55:52.777Z,6.30
2018-09-18T10:59:54.954Z,6.20
2018-09-18T11:03:57.164Z,6.17
2018-09-18T11:07:59.526Z,6.57
2018-09-18T11:12:01.640Z,5.93
2018-09-18T11:16:13.323Z,6.10
2018-09-18T11:20:15.574Z,6.20
2018-09-18T11:24:17.840Z,6.00
2018-09-18T11:28:19.938Z,5.87
2018-09-18T11:32:22.126Z,5.73
2018-09-18T11:36:25.176Z,5.37
2018-09-18T11:40:27.404Z,5.80
2018-09-18T11:44:29.610Z,6.57
2018-09-18T11:48:31.917Z,6.83
2018-09-18T11:52:34.187Z,5.77
2018-09-18T11:56:36.446Z,6.60
2018-09-18T12:00:38.680Z,6.83
2018-09-18T12:04:40.914Z,6.13
2018-09-18T12:08:43.340Z,6.53
2018-09-18T12:12:45.565Z,7.07
2018-09-18T12:16:47.856Z,6.10
2018-09-18T12:20:50.007Z,6.03
2018-09-18T12:24:52.220Z,6.73
2018-09-18T12:28:54.483Z,6.13
2018-09-18T12:32:56.675Z,6.57
2018-09-18T12:36:59.463Z,6.63
2018-09-18T12:41:01.614Z,6.57
2018-09-18T12:45:04.034Z,5.77
2018-09-18T12:49:06.302Z,6.13
2018-09-18T12:53:08.394Z,5.60
2018-09-18T12:57:10.653Z,6.20
2018-09-18T13:01:12.764Z,6.33
2018-09-18T13:05:14.972Z,5.33
2018-09-18T13:09:17.209Z,5.17
2018-09-18T13:13:19.443Z,5.77
2018-09-18T13:17:21.759Z,4.70
2018-09-18T13:21:23.900Z,5.27
2018-09-18T13:25:26.336Z,5.07
2018-09-18T13:29:29.333Z,5.40
2018-09-18T13:33:31.555Z,5.30
2018-09-18T13:37:33.908Z,5.00
2018-09-18T13:41:36.792Z,5.30
2018-09-18T13:45:39.007Z,5.33
2018-09-18T13:49:41.992Z,5.40
2018-09-18T13:53:44.560Z,13.00
2018-09-18T13:57:46.840Z,5.33
2018-09-18T14:01:49.196Z,7.23
2018-09-18T14:05:51.535Z,6.10
2018-09-18T14:09:54.180Z,5.43
2018-09-18T14:13:56.532Z,6.30
2018-09-18T14:17:58.809Z,6.53
2018-09-18T14:22:01.064Z,5.90
2018-09-18T14:26:03.405Z,6.37
2018-09-18T14:30:09.867Z,5.40
2018-09-18T14:34:13.613Z,5.87
2018-09-18T14:38:16.395Z,6.80
2018-09-18T14:42:18.652Z,6.63
2018-09-18T14:46:20.876Z,6.47
2018-09-18T14:50:28.825Z,6.13
2018-09-18T14:54:31.091Z,5.30
2018-09-18T14:58:33.335Z,5.67
2018-09-18T15:02:35.588Z,4.80
2018-09-18T15:06:37.856Z,5.83
2018-09-18T15:10:40.174Z,6.40
2018-09-18T15:14:43.107Z,4.87
2018-09-18T15:18:45.439Z,5.83
2018-09-18T15:22:47.735Z,5.97
2018-09-18T15:26:50.984Z,5.50
2018-09-18T15:30:53.328Z,4.87
2018-09-18T15:34:55.588Z,5.53
2018-09-18T15:38:57.884Z,5.50
2018-09-18T15:43:00.251Z,5.73
2018-09-18T15:47:05.648Z,5.80
2018-09-18T15:51:08.258Z,6.93
2018-09-18T15:55:10.577Z,8.27
2018-09-18T15:59:12.865Z,5.67
2018-09-18T16:03:15.054Z,5.33
2018-09-18T16:07:17.980Z,8.47
2018-09-18T16:11:20.301Z,5.73
2018-09-18T16:15:23.976Z,5.77
2018-09-18T16:19:33.918Z,6.90
2018-09-18T16:23:36.273Z,7.17
2018-09-18T16:27:38.553Z,5.40
2018-09-18T16:31:40.789Z,6.77
2018-09-18T16:35:43.087Z,6.93
2018-09-18T16:39:45.339Z,6.20
2018-09-18T16:43:49.125Z,6.23
2018-09-18T16:47:51.351Z,6.17
2018-09-18T16:51:53.634Z,5.83
2018-09-18T16:55:55.917Z,6.00
2018-09-18T16:59:58.151Z,6.37
2018-09-18T17:04:00.323Z,6.00
2018-09-18T17:08:03.529Z,7.47
2018-09-18T17:12:06.037Z,6.70
2018-09-18T17:16:08.210Z,7.23
2018-09-18T17:20:10.409Z,6.17
2018-09-18T17:24:12.581Z,4.60
2018-09-18T17:28:14.898Z,4.20
2018-09-18T17:32:17.085Z,4.20
2018-09-18T17:36:19.326Z,4.70
2018-09-18T17:40:21.708Z,3.93
2018-09-18T17:44:23.908Z,4.87
2018-09-18T17:48:26.169Z,5.20
2018-09-18T17:52:28.419Z,4.60
2018-09-18T17:56:30.701Z,4.47
2018-09-18T18:00:32.903Z,5.60
2018-09-18T18:04:35.125Z,5.00
2018-09-18T18:08:37.362Z,5.50
2018-09-18T18:12:39.568Z,5.60
2018-09-18T18:16:41.882Z,5.00
2018-09-18T18:20:44.094Z,4.40
2018-09-18T18:24:46.254Z,5.67
2018-09-18T18:28:48.574Z,5.57
2018-09-18T18:32:50.929Z,4.67
2018-09-18T18:36:53.130Z,5.10
2018-09-18T18:40:55.498Z,5.67
2018-09-18T18:44:57.856Z,6.30
2018-09-18T18:49:00.035Z,5.37
2018-09-18T18:53:02.271Z,5.87
2018-09-18T18:57:05.073Z,5.63
2018-09-18T19:01:07.312Z,5.37
2018-09-18T19:05:09.582Z,5.37
2018-09-18T19:09:13.383Z,6.27
2018-09-18T19:13:15.707Z,6.20
2018-09-18T19:17:18.022Z,6.47
2018-09-18T19:21:20.417Z,6.93
2018-09-18T19:25:22.677Z,5.67
2018-09-18T19:29:25.034Z,6.33
2018-09-18T19:33:27.567Z,5.73
2018-09-18T19:37:29.751Z,6.53
2018-09-18T19:41:32.016Z,6.70
2018-09-18T19:45:34.256Z,5.70
2018-09-18T19:49:38.698Z,6.10
2018-09-18T19:53:40.972Z,6.37
2018-09-18T19:57:43.294Z,6.40
2018-09-18T20:01:45.686Z,7.27
2018-09-18T20:05:48.976Z,5.57
2018-09-18T20:09:51.356Z,6.33
2018-09-18T20:13:53.631Z,6.17
2018-09-18T20:17:55.911Z,6.07
2018-09-18T20:21:58.181Z,6.43
2018-09-18T20:26:00.483Z,7.00
2018-09-18T20:30:02.831Z,6.20
2018-09-18T20:35:34.605Z,6.60
2018-09-18T20:39:36.789Z,6.97
2018-09-18T20:43:39.007Z,7.23
2018-09-18T20:47:41.228Z,5.33
2018-09-18T20:51:43.547Z,7.43
2018-09-18T20:55:45.764Z,6.77
2018-09-18T20:59:48.018Z,6.90
2018-09-18T21:03:50.203Z,7.57
2018-09-18T21:07:52.470Z,6.97
2018-09-18T21:11:54.833Z,7.93
2018-09-18T21:15:57.104Z,6.97
2018-09-18T21:19:59.300Z,7.83
2018-09-18T21:24:01.539Z,7.23
2018-09-18T21:28:03.758Z,10.00
2018-09-18T21:32:05.987Z,10.20
2018-09-18T21:36:08.315Z,8.57
2018-09-18T21:40:10.590Z,9.47
2018-09-18T21:44:12.902Z,8.10
2018-09-18T21:48:15.144Z,9.23
2018-09-18T21:52:17.637Z,9.17
2018-09-18T21:56:19.855Z,8.53
2018-09-18T22:00:22.027Z,8.53
2018-09-18T22:04:24.303Z,8.47
2018-09-18T22:08:26.574Z,7.70
2018-09-18T22:12:28.751Z,7.30
2018-09-18T22:16:30.951Z,7.37
2018-09-18T22:20:33.122Z,6.73
2018-09-18T22:24:35.286Z,6.93
2018-09-18T22:28:37.545Z,7.97
2018-09-18T22:32:39.704Z,9.37
2018-09-18T22:36:41.908Z,10.40
2018-09-18T22:40:44.075Z,9.90
2018-09-18T22:44:46.246Z,10.90
2018-09-18T22:48:48.488Z,10.00
2018-09-18T22:52:50.651Z,9.17
2018-09-18T22:56:52.830Z,8.90
2018-09-18T23:00:54.997Z,8.17
2018-09-18T23:04:57.188Z,8.27
2018-09-18T23:08:59.394Z,7.53
2018-09-18T23:13:01.599Z,7.30
2018-09-18T23:17:03.830Z,6.00
2018-09-18T23:21:06.028Z,6.73
2018-09-18T23:25:08.215Z,6.07
2018-09-18T23:29:10.367Z,5.90
2018-09-18T23:33:12.498Z,6.53
2018-09-18T23:37:14.660Z,6.03
2018-09-18T23:41:16.808Z,6.67
2018-09-18T23:45:18.989Z,5.70
2018-09-18T23:49:21.151Z,6.10
2018-09-18T23:53:24.039Z,5.67
2018-09-18T23:57:26.182Z,6.17
